Titolo della pagina

Report METAR

 

LIPA - Aviano (it/Us-Af, Italy
Distance from station: NE 15km
Dati ricevuti: 20/10/2021 21:55
Mist, Nuvoloso
Mist, Nuvoloso
 Vento da NE
Vento: NE 7 km/h
Temperatura: 13°C
P.to Rugiada: 13°C
Umidità: 100%
Barometro: 1021 hPa
Summary: Mist
Nuvole: Molto nuvoloso
Visibility: 2 km
Cloud details: Parz. nuvoloso 457 m
Molto nuvoloso 762 m
2021/10/20 19:55 LIPA 201955Z 05004KT 2000 BR SCT015 BKN025 13/13 Q1021
LIPH - Treviso(Civ/It-A, Italy
Distance from station: SSO 39km
Dati ricevuti: 20/10/2021 22:20
Mist, Nuvoloso
Mist, Nuvoloso
 Vento da N
Vento: N 6 km/h
Temperatura: 14°C
P.to Rugiada: 11°C
Umidità: 82%
Barometro: 1021 hPa
Summary: Mist
Nuvole: Molto nuvoloso
Visibility: 4 km
Cloud details: Molto nuvoloso 1524 m
2021/10/20 20:20 LIPH 202020Z 01003KT 330V040 4000 BR BKN050 14/11 Q1021
 
LIPS - Istrana (it-Afb), Italy
Distance from station: SO 40km
Dati ricevuti: 20/10/2021 21:55
Mist, Nuvoloso
Mist, Nuvoloso
 Vento da NE
Vento: NE 6 km/h
Temperatura: 15°C
P.to Rugiada: 13°C
Umidità: 88%
Barometro: 1021 hPa
Summary: Mist
Nuvole: Molto nuvoloso
Visibility: 4 km
Cloud details: Parz. nuvoloso 1219 m
Molto nuvoloso 1524 m
2021/10/20 19:55 LIPS 201955Z 05003KT 3700 BR SCT040 BKN050 15/13 Q1021
LIPI - Rivolto (it-Afb), Italy
Distance from station: E 47km
Dati ricevuti: 20/10/2021 21:55
Nebbia, Nuvoloso
Nebbia, Nuvoloso
 Vento da N
Vento: N 7 km/h
Temperatura: 13°C
P.to Rugiada: 11°C
Umidità: 88%
Barometro: 1021 hPa
Summary: Nebbia
Nuvole: Molto nuvoloso
Visibility: 1 km
Cloud details: Parz. nuvoloso 610 m
Molto nuvoloso 1067 m
2021/10/20 19:55 LIPI 201955Z 35004KT 0800 FG SCT020 BKN035 13/11 Q1021
 
LIPZ - Venezia/Tessera, Italy
Distance from station: S 48km
Dati ricevuti: 20/10/2021 22:20
Mist, Parz. nuvoloso
Mist, Parz. nuvoloso
 Vento da NNE
Vento: NNE 9 km/h
Temperatura: 14°C
P.to Rugiada: 11°C
Umidità: 82%
Barometro: 1021 hPa
Summary: Mist
Nuvole: Parz. nuvoloso
Visibility: 5 km
Cloud details: Parz. nuvoloso 1524 m
2021/10/20 20:20 LIPZ 202020Z 03005KT 5000 BR SCT050 14/11 Q1021 NOSIG
LIVR - Rolle Pass, Italy
Distance from station: NO 65km
Dati ricevuti: 20/10/2021 18:55
DATI Obsoleti
Nebbia
Nebbia
 Vento da O
Vento: O 2 km/h
Temperatura: 4°C
P.to Rugiada: 4°C
Umidità: 100%
Barometro: 1024 hPa
Summary: Nebbia
Visibility: 0 km
2021/10/20 16:55 LIVR 201655Z 28001KT 0100 FG VV/// 04/04 Q1024 RMK MON INVIS VIS MIN 0100
 
LIPU - Padova (civ/It-A, Italy
Distance from station: SO 77km
Dati ricevuti: 20/10/2021 08:00
DATI Obsoleti
Nebbia
Nebbia
 Vento da Variabile
Vento: Variabile 2 km/h
Temperatura: 8°C
P.to Rugiada: 8°C
Umidità: 100%
Barometro: 1026 hPa
Summary: Nebbia
Visibility: 0 km
2021/10/20 06:00 LIPU 200600Z VRB01KT 0300 FG VV/// 08/08 Q1026